createdAt,value
2022-10-15T00:01:38.175Z,10.73
2022-10-15T00:04:04.970Z,10.76
2022-10-15T00:06:31.872Z,10.77
2022-10-15T00:08:58.553Z,10.76
2022-10-15T00:11:28.735Z,10.79
2022-10-15T00:13:56.901Z,10.79
2022-10-15T00:16:25.233Z,10.79
2022-10-15T00:18:52.264Z,10.79
2022-10-15T00:21:19.592Z,10.79
2022-10-15T00:23:46.470Z,10.81
2022-10-15T00:26:18.498Z,10.82
2022-10-15T00:28:45.692Z,10.83
2022-10-15T00:31:14.038Z,10.82
2022-10-15T00:33:41.204Z,10.84
2022-10-15T00:36:10.768Z,10.84
2022-10-15T00:38:37.554Z,10.83
2022-10-15T00:41:05.282Z,10.81
2022-10-15T00:43:36.063Z,10.80
2022-10-15T00:46:03.269Z,10.75
2022-10-15T00:48:31.389Z,10.76
2022-10-15T00:51:01.683Z,10.76
2022-10-15T00:53:28.409Z,10.76
2022-10-15T00:55:55.188Z,10.76
2022-10-15T00:58:28.361Z,10.76
2022-10-15T01:00:56.079Z,10.77
2022-10-15T01:03:23.473Z,10.76
2022-10-15T01:05:51.448Z,10.77
2022-10-15T01:08:18.444Z,10.75
2022-10-15T01:10:50.872Z,10.77
2022-10-15T01:13:42.345Z,10.77
2022-10-15T01:16:23.993Z,10.73
2022-10-15T01:18:57.437Z,10.71
2022-10-15T01:21:44.659Z,10.69
2022-10-15T01:24:33.910Z,10.60
2022-10-15T01:27:27.123Z,10.68
2022-10-15T01:30:12.245Z,10.68
2022-10-15T01:32:43.612Z,10.66
2022-10-15T01:35:21.459Z,10.65
2022-10-15T01:37:59.751Z,10.65
2022-10-15T01:40:46.444Z,10.65
2022-10-15T01:43:15.648Z,10.65
2022-10-15T01:46:11.169Z,10.63
2022-10-15T01:49:08.946Z,10.64
2022-10-15T01:51:38.227Z,10.64
2022-10-15T01:54:07.932Z,10.64
2022-10-15T01:56:36.983Z,10.64
2022-10-15T01:59:04.933Z,10.65
2022-10-15T02:01:31.790Z,10.66
2022-10-15T02:03:58.692Z,10.67
2022-10-15T02:06:39.450Z,10.66
2022-10-15T02:09:30.275Z,10.65
2022-10-15T02:12:07.166Z,10.68
2022-10-15T02:14:36.766Z,10.69
2022-10-15T02:17:06.913Z,10.68
2022-10-15T02:19:36.868Z,10.67
2022-10-15T02:22:03.544Z,10.66
2022-10-15T02:24:35.584Z,10.66
2022-10-15T02:27:06.714Z,10.68
2022-10-15T02:29:35.106Z,10.66
2022-10-15T02:32:03.415Z,10.63
2022-10-15T02:34:32.889Z,10.59
2022-10-15T02:37:01.666Z,10.56
2022-10-15T02:39:28.519Z,10.55
2022-10-15T02:41:55.429Z,10.55
2022-10-15T02:44:22.182Z,10.55
2022-10-15T02:46:49.005Z,10.56
2022-10-15T02:49:17.817Z,10.56
2022-10-15T02:51:44.541Z,10.55
2022-10-15T02:54:16.103Z,10.54
2022-10-15T02:56:42.833Z,10.56
2022-10-15T02:59:09.864Z,10.55
2022-10-15T03:01:36.753Z,10.54
2022-10-15T03:04:05.188Z,10.54
2022-10-15T03:06:33.019Z,10.56
2022-10-15T03:08:59.951Z,10.55
2022-10-15T03:11:26.873Z,10.56
2022-10-15T03:13:53.627Z,10.57
2022-10-15T03:16:21.348Z,10.57
2022-10-15T03:18:48.118Z,10.57
2022-10-15T03:21:15.944Z,10.56
2022-10-15T03:23:43.576Z,10.55
2022-10-15T03:26:17.170Z,10.53
2022-10-15T03:28:44.633Z,10.51
2022-10-15T03:31:15.986Z,10.48
2022-10-15T03:33:47.331Z,10.47
2022-10-15T03:36:15.436Z,10.45
2022-10-15T03:38:42.300Z,10.44
2022-10-15T03:41:13.146Z,10.45
2022-10-15T03:43:42.935Z,10.47
2022-10-15T03:46:10.641Z,10.47
2022-10-15T03:48:41.856Z,10.45
2022-10-15T03:51:11.124Z,10.44
2022-10-15T03:53:39.720Z,10.43
2022-10-15T03:56:07.038Z,10.43
2022-10-15T03:58:37.400Z,10.41
2022-10-15T04:01:11.000Z,10.41
2022-10-15T04:03:38.499Z,10.40
2022-10-15T04:06:05.331Z,10.40
2022-10-15T04:08:32.823Z,10.41
2022-10-15T04:10:59.846Z,10.41
2022-10-15T04:13:27.308Z,10.40
2022-10-15T04:15:55.478Z,10.39
2022-10-15T04:18:22.600Z,10.39
2022-10-15T04:20:53.771Z,10.39
2022-10-15T04:23:22.963Z,10.38
2022-10-15T04:26:08.303Z,10.37
2022-10-15T04:28:36.128Z,10.37
2022-10-15T04:31:03.655Z,10.37
2022-10-15T04:33:30.853Z,10.36
2022-10-15T04:36:01.171Z,10.35
2022-10-15T04:38:44.026Z,10.34
2022-10-15T04:41:12.259Z,10.33
2022-10-15T04:44:02.110Z,10.35
2022-10-15T04:46:31.128Z,10.34
2022-10-15T04:49:02.093Z,10.33
2022-10-15T04:51:28.835Z,10.34
2022-10-15T04:54:18.492Z,10.37
2022-10-15T04:56:57.781Z,10.38
2022-10-15T04:59:25.018Z,10.39
2022-10-15T05:02:10.883Z,10.41
2022-10-15T05:04:38.306Z,10.42
2022-10-15T05:07:05.229Z,10.43
2022-10-15T05:09:35.617Z,10.46
2022-10-15T05:12:03.728Z,10.48
2022-10-15T05:14:30.504Z,10.49
2022-10-15T05:17:11.667Z,10.50
2022-10-15T05:19:40.756Z,10.52
2022-10-15T05:22:14.162Z,10.53
2022-10-15T05:24:47.478Z,10.55
2022-10-15T05:27:25.340Z,10.59
2022-10-15T05:29:52.120Z,10.60
2022-10-15T05:34:45.401Z,10.62
2022-10-15T05:37:15.269Z,10.63
2022-10-15T05:39:42.731Z,10.66
2022-10-15T05:42:10.643Z,10.67
2022-10-15T05:44:41.071Z,10.69
2022-10-15T05:47:11.960Z,10.72
2022-10-15T05:49:39.325Z,10.70
2022-10-15T05:52:12.948Z,10.70
2022-10-15T05:55:17.695Z,10.72
2022-10-15T05:57:44.336Z,10.74
2022-10-15T06:00:11.286Z,10.73
2022-10-15T06:02:40.815Z,10.76
2022-10-15T06:05:07.950Z,10.79
2022-10-15T06:07:34.692Z,10.80
2022-10-15T06:10:05.121Z,10.82
2022-10-15T06:12:33.979Z,10.86
2022-10-15T06:15:00.743Z,10.91
2022-10-15T06:17:27.423Z,10.96
2022-10-15T06:19:54.127Z,11.02
2022-10-15T06:22:20.916Z,11.08
2022-10-15T06:24:47.699Z,11.14
2022-10-15T06:27:14.495Z,11.19
2022-10-15T06:29:41.332Z,11.24
2022-10-15T06:32:11.391Z,11.28
2022-10-15T06:34:42.808Z,11.30
2022-10-15T06:37:09.489Z,11.33
2022-10-15T06:39:36.299Z,11.37
2022-10-15T06:42:03.060Z,11.41
2022-10-15T06:44:38.423Z,11.44
2022-10-15T06:47:05.167Z,11.50
2022-10-15T06:49:32.000Z,11.57
2022-10-15T06:52:02.609Z,11.64
2022-10-15T06:54:30.604Z,11.77
2022-10-15T06:56:57.413Z,11.88
2022-10-15T06:59:24.213Z,11.96
2022-10-15T07:01:50.913Z,12.08
2022-10-15T07:04:17.593Z,12.11
2022-10-15T07:06:44.284Z,12.23
2022-10-15T07:09:10.986Z,12.32
2022-10-15T07:11:37.907Z,12.28
2022-10-15T07:14:04.633Z,12.29
2022-10-15T07:16:31.330Z,12.33
2022-10-15T07:18:58.061Z,12.45
2022-10-15T07:21:24.765Z,12.61
2022-10-15T07:23:51.759Z,12.69
2022-10-15T07:26:18.550Z,12.67
2022-10-15T07:28:45.408Z,12.68
2022-10-15T07:31:12.267Z,12.72
2022-10-15T07:33:39.211Z,12.73
2022-10-15T07:36:07.931Z,12.74
2022-10-15T07:38:35.177Z,12.70
2022-10-15T07:41:03.003Z,12.73
2022-10-15T07:43:32.351Z,12.75
2022-10-15T07:45:59.186Z,12.78
2022-10-15T07:48:25.988Z,12.81
2022-10-15T07:50:56.495Z,12.77
2022-10-15T07:53:23.448Z,12.80
2022-10-15T07:55:58.934Z,12.72
2022-10-15T07:58:30.566Z,12.82
2022-10-15T08:01:02.203Z,12.91
2022-10-15T08:03:30.724Z,13.06
2022-10-15T08:05:59.798Z,13.30
2022-10-15T08:08:28.338Z,13.43
2022-10-15T08:10:55.226Z,13.35
2022-10-15T08:13:22.848Z,13.58
2022-10-15T08:15:50.505Z,13.63
2022-10-15T08:18:17.211Z,13.74
2022-10-15T08:20:43.950Z,13.92
2022-10-15T08:23:15.065Z,14.11
2022-10-15T08:25:42.283Z,14.23
2022-10-15T08:28:12.292Z,14.37
2022-10-15T08:30:38.986Z,14.29
2022-10-15T08:33:12.391Z,14.34
2022-10-15T08:35:43.741Z,14.21
2022-10-15T08:38:14.688Z,14.30
2022-10-15T08:40:52.324Z,14.41
2022-10-15T08:43:23.640Z,14.58
2022-10-15T08:45:52.776Z,14.59
2022-10-15T08:48:23.591Z,14.84
2022-10-15T08:50:57.396Z,15.07
2022-10-15T08:53:25.041Z,15.33
2022-10-15T08:55:55.908Z,15.47
2022-10-15T08:58:38.212Z,15.47
2022-10-15T09:01:13.716Z,15.64
2022-10-15T09:04:00.441Z,15.76
2022-10-15T09:06:31.084Z,15.80
2022-10-15T09:09:00.907Z,15.59
2022-10-15T09:11:46.296Z,15.56
2022-10-15T09:14:22.674Z,15.57
2022-10-15T09:16:50.045Z,15.49
2022-10-15T09:19:18.798Z,15.49
2022-10-15T09:21:47.312Z,15.61
2022-10-15T09:24:18.766Z,15.82
2022-10-15T09:26:45.474Z,16.14
2022-10-15T09:29:12.114Z,16.45
2022-10-15T09:31:45.975Z,16.66
2022-10-15T09:34:27.936Z,16.72
2022-10-15T09:37:00.879Z,16.92
2022-10-15T09:39:35.752Z,17.10
2022-10-15T09:42:21.526Z,17.16
2022-10-15T09:44:48.720Z,17.31
2022-10-15T09:47:26.769Z,17.41
2022-10-15T09:50:00.365Z,17.53
2022-10-15T09:52:45.600Z,17.67
2022-10-15T09:55:12.397Z,17.94
2022-10-15T09:57:40.429Z,17.98
2022-10-15T10:00:10.782Z,18.19
2022-10-15T10:02:40.454Z,18.36
2022-10-15T10:05:19.457Z,18.51
2022-10-15T10:07:46.220Z,18.41
2022-10-15T10:10:30.680Z,18.50
2022-10-15T10:12:57.522Z,18.57
2022-10-15T10:15:34.729Z,18.65
2022-10-15T10:18:01.945Z,18.65
2022-10-15T10:20:32.842Z,18.69
2022-10-15T10:23:00.779Z,18.73
2022-10-15T10:25:27.765Z,18.76
2022-10-15T10:28:17.991Z,18.89
2022-10-15T10:30:57.014Z,18.95
2022-10-15T10:33:27.706Z,19.05
2022-10-15T10:35:55.223Z,19.01
2022-10-15T10:38:26.994Z,19.18
2022-10-15T10:40:59.227Z,19.20
2022-10-15T10:43:27.709Z,19.36
2022-10-15T10:45:54.423Z,19.50
2022-10-15T10:48:41.468Z,19.65
2022-10-15T10:51:09.340Z,19.62
2022-10-15T10:53:57.243Z,19.70
2022-10-15T10:56:44.183Z,19.58
2022-10-15T10:59:10.842Z,19.76
2022-10-15T11:01:37.658Z,19.92
2022-10-15T11:07:09.409Z,19.56
2022-10-15T11:09:51.131Z,19.02
2022-10-15T11:12:23.673Z,18.77
2022-10-15T11:14:53.474Z,19.06
2022-10-15T11:17:34.002Z,19.11
2022-10-15T11:23:11.368Z,18.79
2022-10-15T11:25:50.387Z,18.35
2022-10-15T11:28:28.485Z,17.98
2022-10-15T11:31:00.185Z,17.98
2022-10-15T11:33:30.048Z,18.05
2022-10-15T11:36:10.113Z,17.96
2022-10-15T11:38:56.289Z,17.62
2022-10-15T11:41:22.976Z,17.15
2022-10-15T11:44:08.497Z,17.00
2022-10-15T11:46:55.436Z,16.97
2022-10-15T11:49:29.684Z,16.91
2022-10-15T11:52:07.581Z,17.00
2022-10-15T11:54:49.478Z,17.01
2022-10-15T11:57:19.195Z,16.82
2022-10-15T11:59:50.125Z,17.12
2022-10-15T12:02:24.474Z,17.33
2022-10-15T12:04:56.487Z,17.50
2022-10-15T12:07:25.966Z,17.71
2022-10-15T12:09:55.017Z,17.75
2022-10-15T12:12:42.014Z,17.53
2022-10-15T12:15:29.415Z,17.46
2022-10-15T12:18:02.010Z,17.84
2022-10-15T12:20:29.185Z,17.83
2022-10-15T12:23:01.245Z,17.62
2022-10-15T12:25:34.089Z,17.38
2022-10-15T12:28:02.671Z,16.93
2022-10-15T12:30:32.510Z,16.65
2022-10-15T12:32:59.552Z,16.50
2022-10-15T12:35:33.827Z,16.44
2022-10-15T12:38:11.245Z,16.35
2022-10-15T12:40:39.347Z,16.24
2022-10-15T12:43:13.213Z,16.16
2022-10-15T12:45:41.406Z,16.15
2022-10-15T12:48:08.091Z,16.14
2022-10-15T12:50:35.828Z,16.16
2022-10-15T12:53:08.193Z,16.12
2022-10-15T12:55:40.971Z,16.26
2022-10-15T12:58:25.974Z,16.62
2022-10-15T13:00:52.693Z,16.92
2022-10-15T13:03:31.716Z,17.21
2022-10-15T13:06:13.795Z,17.40
2022-10-15T13:08:44.314Z,17.63
2022-10-15T13:11:19.509Z,17.87
2022-10-15T13:13:47.211Z,17.80
2022-10-15T13:16:14.583Z,17.77
2022-10-15T13:18:41.938Z,17.98
2022-10-15T13:21:11.352Z,17.98
2022-10-15T13:23:45.227Z,18.13
2022-10-15T13:26:14.754Z,18.26
2022-10-15T13:28:42.425Z,18.40
2022-10-15T13:31:14.944Z,17.96
2022-10-15T13:33:42.752Z,17.78
2022-10-15T13:36:10.201Z,17.38
2022-10-15T13:38:38.820Z,17.16
2022-10-15T13:41:05.611Z,16.95
2022-10-15T13:43:32.368Z,17.14
2022-10-15T13:46:00.101Z,17.40
2022-10-15T13:48:28.286Z,17.64
2022-10-15T13:50:56.566Z,17.89
2022-10-15T13:53:35.786Z,17.64
2022-10-15T13:56:22.401Z,17.52
2022-10-15T13:58:49.186Z,17.35
2022-10-15T14:01:17.853Z,17.24
2022-10-15T14:03:50.636Z,16.90
2022-10-15T14:06:19.029Z,16.72
2022-10-15T14:08:47.145Z,16.86
2022-10-15T14:11:14.332Z,16.77
2022-10-15T14:13:45.619Z,16.69
2022-10-15T14:16:18.465Z,16.53
2022-10-15T14:18:49.178Z,16.47
2022-10-15T14:21:18.521Z,16.18
2022-10-15T14:23:46.342Z,16.03
2022-10-15T14:26:14.105Z,15.89
2022-10-15T14:28:41.737Z,15.77
2022-10-15T14:31:08.560Z,15.68
2022-10-15T14:33:35.261Z,15.96
2022-10-15T14:36:05.595Z,16.45
2022-10-15T14:38:32.403Z,16.84
2022-10-15T14:41:06.535Z,17.09
2022-10-15T14:43:35.831Z,17.34
2022-10-15T14:46:06.813Z,17.56
2022-10-15T14:48:35.676Z,17.68
2022-10-15T14:51:07.218Z,17.79
2022-10-15T14:53:37.962Z,17.81
2022-10-15T14:56:09.695Z,17.90
2022-10-15T14:58:37.879Z,17.84
2022-10-15T15:01:06.662Z,17.33
2022-10-15T15:03:44.502Z,16.79
2022-10-15T15:06:11.206Z,16.35
2022-10-15T15:08:37.867Z,15.96
2022-10-15T15:11:06.883Z,15.64
2022-10-15T15:13:38.849Z,15.41
2022-10-15T15:16:05.763Z,15.19
2022-10-15T15:18:32.688Z,15.04
2022-10-15T15:21:02.101Z,14.87
2022-10-15T15:23:29.470Z,14.80
2022-10-15T15:25:57.114Z,14.67
2022-10-15T15:28:25.157Z,14.57
2022-10-15T15:30:59.728Z,14.45
2022-10-15T15:33:28.477Z,14.32
2022-10-15T15:36:01.299Z,14.24
2022-10-15T15:38:31.067Z,14.17
2022-10-15T15:41:18.143Z,14.10
2022-10-15T15:43:45.106Z,13.97
2022-10-15T15:46:12.292Z,13.84
2022-10-15T15:48:39.002Z,13.78
2022-10-15T15:51:16.883Z,13.71
2022-10-15T15:53:43.594Z,13.67
2022-10-15T15:56:10.322Z,13.62
2022-10-15T15:58:37.025Z,13.56
2022-10-15T16:01:05.148Z,13.55
2022-10-15T16:03:31.975Z,13.51
2022-10-15T16:05:58.711Z,13.49
2022-10-15T16:08:25.375Z,13.43
2022-10-15T16:10:52.275Z,13.36
2022-10-15T16:13:18.920Z,13.32
2022-10-15T16:15:45.569Z,13.26
2022-10-15T16:18:12.371Z,13.20
2022-10-15T16:20:46.318Z,13.15
2022-10-15T16:23:15.398Z,13.09
2022-10-15T16:28:09.609Z,12.99
2022-10-15T16:30:36.517Z,12.93
2022-10-15T16:33:03.307Z,12.86
2022-10-15T16:35:30.095Z,12.77
2022-10-15T16:37:56.782Z,12.72
2022-10-15T16:40:24.008Z,12.71
2022-10-15T16:42:50.713Z,12.75
2022-10-15T16:45:17.429Z,12.75
2022-10-15T16:47:44.101Z,12.74
2022-10-15T16:50:11.176Z,12.71
2022-10-15T16:52:37.912Z,12.63
2022-10-15T16:55:04.935Z,12.59
2022-10-15T16:57:31.780Z,12.49
2022-10-15T16:59:58.839Z,12.42
2022-10-15T17:02:25.877Z,12.36
2022-10-15T17:04:53.425Z,12.35
2022-10-15T17:07:20.146Z,12.30
2022-10-15T17:12:14.629Z,12.20
2022-10-15T17:14:41.375Z,12.19
2022-10-15T17:17:08.099Z,12.18
2022-10-15T17:19:35.404Z,12.17
2022-10-15T17:22:02.146Z,12.13
2022-10-15T17:24:28.872Z,12.11
2022-10-15T17:26:58.076Z,12.08
2022-10-15T17:29:27.860Z,12.09
2022-10-15T17:31:57.604Z,12.06
2022-10-15T17:34:24.369Z,12.03
2022-10-15T17:36:52.963Z,12.02
2022-10-15T17:39:20.568Z,11.99
2022-10-15T17:41:47.420Z,11.95
2022-10-15T17:44:14.639Z,11.91
2022-10-15T17:46:41.843Z,11.89
2022-10-15T17:49:11.158Z,11.89
2022-10-15T17:51:39.446Z,11.91
2022-10-15T17:54:06.427Z,11.92
2022-10-15T17:56:34.402Z,11.88
2022-10-15T17:59:02.249Z,11.85
2022-10-15T18:01:56.157Z,11.80
2022-10-15T18:04:17.322Z,11.79
2022-10-15T18:06:45.025Z,11.79
2022-10-15T18:09:23.231Z,11.79
2022-10-15T18:11:50.070Z,11.76
2022-10-15T18:14:16.841Z,11.70
2022-10-15T18:16:44.111Z,11.71
2022-10-15T18:19:10.920Z,11.73
2022-10-15T18:21:37.614Z,11.72
2022-10-15T18:24:04.332Z,11.70
2022-10-15T18:26:31.075Z,11.63
2022-10-15T18:28:57.847Z,11.65
2022-10-15T18:31:26.341Z,11.64
2022-10-15T18:33:55.630Z,11.62
2022-10-15T18:36:23.962Z,11.60
2022-10-15T18:38:50.686Z,11.53
2022-10-15T18:41:18.986Z,11.50
2022-10-15T18:43:52.451Z,11.44
2022-10-15T18:46:19.288Z,11.39
2022-10-15T18:48:45.998Z,11.32
2022-10-15T18:51:13.061Z,11.29
2022-10-15T18:53:40.210Z,11.19
2022-10-15T18:56:07.869Z,10.96
2022-10-15T18:58:34.830Z,10.78
2022-10-15T19:01:12.196Z,10.74
2022-10-15T19:03:38.928Z,10.64
2022-10-15T19:06:05.909Z,10.56
2022-10-15T19:08:32.972Z,10.54
2022-10-15T19:11:03.432Z,10.43
2022-10-15T19:13:30.151Z,10.30
2022-10-15T19:15:56.843Z,10.24
2022-10-15T19:18:23.601Z,10.17
2022-10-15T19:20:50.284Z,10.14
2022-10-15T19:23:16.938Z,10.05
2022-10-15T19:25:44.055Z,9.98
2022-10-15T19:28:10.778Z,9.93
2022-10-15T19:30:38.854Z,9.91
2022-10-15T19:33:08.501Z,9.83
2022-10-15T19:35:41.563Z,9.89
2022-10-15T19:38:08.950Z,9.87
2022-10-15T19:40:38.678Z,9.84
2022-10-15T19:43:06.085Z,9.78
2022-10-15T19:45:38.446Z,9.69
2022-10-15T19:48:05.719Z,9.59
2022-10-15T19:50:35.699Z,9.55
2022-10-15T19:53:09.674Z,9.51
2022-10-15T19:55:36.447Z,9.43
2022-10-15T19:58:03.302Z,9.40
2022-10-15T20:00:29.963Z,9.33
2022-10-15T20:02:56.687Z,9.23
2022-10-15T20:05:23.398Z,9.17
2022-10-15T20:07:50.062Z,9.14
2022-10-15T20:10:17.032Z,9.08
2022-10-15T20:12:43.970Z,9.07
2022-10-15T20:15:10.882Z,9.01
2022-10-15T20:17:37.734Z,8.83
2022-10-15T20:20:05.764Z,8.91
2022-10-15T20:22:32.672Z,8.90
2022-10-15T20:25:01.676Z,8.86
2022-10-15T20:27:28.350Z,8.90
2022-10-15T20:29:55.020Z,8.86
2022-10-15T20:32:34.312Z,8.84
2022-10-15T20:35:02.565Z,8.79
2022-10-15T20:37:31.800Z,8.71
2022-10-15T20:40:00.283Z,8.64
2022-10-15T20:42:27.743Z,8.60
2022-10-15T20:44:54.835Z,8.57
2022-10-15T20:47:22.076Z,8.57
2022-10-15T20:49:50.771Z,8.58
2022-10-15T20:52:23.681Z,8.61
2022-10-15T20:54:52.230Z,8.61
2022-10-15T20:57:18.942Z,8.60
2022-10-15T20:59:45.658Z,8.54
2022-10-15T21:02:12.402Z,8.52
2022-10-15T21:04:39.127Z,8.38
2022-10-15T21:07:05.844Z,8.36
2022-10-15T21:09:32.518Z,8.34
2022-10-15T21:11:59.247Z,8.30
2022-10-15T21:14:25.987Z,8.27
2022-10-15T21:16:52.642Z,8.21
2022-10-15T21:19:19.366Z,8.19
2022-10-15T21:21:46.041Z,8.16
2022-10-15T21:24:15.326Z,8.18
2022-10-15T21:26:42.053Z,8.20
2022-10-15T21:29:15.127Z,8.24
2022-10-15T21:31:42.066Z,8.31
2022-10-15T21:34:08.918Z,8.34
2022-10-15T21:36:35.647Z,8.37
2022-10-15T21:39:04.240Z,8.39
2022-10-15T21:41:32.231Z,8.42
2022-10-15T21:43:59.714Z,8.44
2022-10-15T21:46:26.848Z,8.44
2022-10-15T21:48:54.100Z,8.42
2022-10-15T21:51:23.934Z,8.21
2022-10-15T21:53:50.959Z,8.20
2022-10-15T21:56:18.024Z,8.15
2022-10-15T21:58:44.774Z,8.12
2022-10-15T22:01:14.687Z,8.08
2022-10-15T22:03:45.759Z,8.04
2022-10-15T22:06:12.722Z,7.99
2022-10-15T22:08:39.466Z,7.94
2022-10-15T22:11:14.054Z,7.92
2022-10-15T22:13:43.951Z,7.90
2022-10-15T22:16:10.999Z,7.89
2022-10-15T22:18:38.141Z,7.88
2022-10-15T22:21:15.739Z,7.88
2022-10-15T22:23:46.996Z,7.86
2022-10-15T22:26:14.918Z,7.84
2022-10-15T22:28:42.141Z,7.83
2022-10-15T22:31:11.381Z,7.80
2022-10-15T22:33:38.906Z,7.78
2022-10-15T22:36:07.579Z,7.76
2022-10-15T22:38:34.223Z,7.74
2022-10-15T22:41:01.827Z,7.73
2022-10-15T22:43:28.514Z,7.71
2022-10-15T22:45:59.065Z,7.68
2022-10-15T22:48:25.809Z,7.67
2022-10-15T22:50:57.456Z,7.64
2022-10-15T22:53:24.199Z,7.65
2022-10-15T22:56:00.988Z,7.67
2022-10-15T22:58:28.426Z,7.70
2022-10-15T23:00:55.336Z,7.68
2022-10-15T23:03:22.375Z,7.68
2022-10-15T23:05:55.376Z,7.67
2022-10-15T23:08:22.407Z,7.65
2022-10-15T23:10:49.366Z,7.60
2022-10-15T23:13:16.370Z,7.54
2022-10-15T23:15:43.001Z,7.48
2022-10-15T23:18:09.742Z,7.44
2022-10-15T23:20:38.121Z,7.42
2022-10-15T23:23:05.809Z,7.37
2022-10-15T23:25:38.577Z,7.32
2022-10-15T23:28:05.500Z,7.30
2022-10-15T23:30:32.391Z,7.32
2022-10-15T23:33:01.463Z,7.28
2022-10-15T23:35:28.216Z,7.25
2022-10-15T23:37:54.914Z,7.25
2022-10-15T23:40:21.694Z,7.21
2022-10-15T23:42:48.431Z,7.20
2022-10-15T23:45:15.402Z,7.17
2022-10-15T23:47:42.164Z,7.10
2022-10-15T23:50:09.128Z,7.09
2022-10-15T23:52:35.933Z,7.10
2022-10-15T23:55:02.733Z,7.08
2022-10-15T23:57:29.466Z,7.05
2022-10-15T23:59:56.115Z,7.04
